createdAt,value
2019-02-23T00:00:36.457Z,94.20
2019-02-23T00:03:11.481Z,94.20
2019-02-23T00:05:44.359Z,94.30
2019-02-23T00:08:17.202Z,94.20
2019-02-23T00:10:50.552Z,94.20
2019-02-23T00:13:23.503Z,94.30
2019-02-23T00:15:56.392Z,94.30
2019-02-23T00:18:29.355Z,94.30
2019-02-23T00:21:02.350Z,94.30
2019-02-23T00:23:35.261Z,94.30
2019-02-23T00:26:08.363Z,94.50
2019-02-23T00:28:41.405Z,94.50
2019-02-23T00:31:14.621Z,94.60
2019-02-23T00:33:47.530Z,94.90
2019-02-23T00:36:20.423Z,94.90
2019-02-23T00:38:53.253Z,94.80
2019-02-23T00:41:26.048Z,94.90
2019-02-23T00:43:58.832Z,94.90
2019-02-23T00:46:31.886Z,95.10
2019-02-23T00:49:04.695Z,95.00
2019-02-23T00:51:37.762Z,95.00
2019-02-23T00:54:10.543Z,95.10
2019-02-23T00:56:43.467Z,95.10
2019-02-23T00:59:16.621Z,95.20
2019-02-23T01:01:49.656Z,95.20
2019-02-23T01:04:22.402Z,95.20
2019-02-23T01:06:55.686Z,95.20
2019-02-23T01:09:28.728Z,95.30
2019-02-23T01:12:01.713Z,95.40
2019-02-23T01:14:35.087Z,95.40
2019-02-23T01:17:08.217Z,95.40
2019-02-23T01:19:47.846Z,95.50
2019-02-23T01:22:16.019Z,95.50
2019-02-23T01:24:48.862Z,96.10
2019-02-23T01:27:21.736Z,95.70
2019-02-23T01:29:54.821Z,95.80
2019-02-23T01:32:27.617Z,95.90
2019-02-23T01:35:00.521Z,96.10
2019-02-23T01:37:33.261Z,96.10
2019-02-23T01:40:08.437Z,96.20
2019-02-23T01:42:41.294Z,96.20
2019-02-23T01:45:14.298Z,96.20
2019-02-23T01:47:47.175Z,96.20
2019-02-23T01:50:20.159Z,95.90
2019-02-23T01:52:53.054Z,96.20
2019-02-23T01:55:26.002Z,96.30
2019-02-23T01:57:58.803Z,96.30
2019-02-23T02:00:32.948Z,96.30
2019-02-23T02:03:06.227Z,96.30
2019-02-23T02:05:39.303Z,96.30
2019-02-23T02:08:12.442Z,96.40
2019-02-23T02:10:45.569Z,96.40
2019-02-23T02:13:18.744Z,96.40
2019-02-23T02:15:51.615Z,96.30
2019-02-23T02:18:24.483Z,96.30
2019-02-23T02:20:58.238Z,96.40
2019-02-23T02:23:31.120Z,96.50
2019-02-23T02:26:04.017Z,96.50
2019-02-23T02:28:36.802Z,96.70
2019-02-23T02:31:09.679Z,96.70
2019-02-23T02:34:21.708Z,96.70
2019-02-23T02:36:54.702Z,96.80
2019-02-23T02:39:27.968Z,96.80
2019-02-23T02:42:00.977Z,96.80
2019-02-23T02:44:34.194Z,96.90
2019-02-23T02:47:07.051Z,96.90
2019-02-23T02:49:40.023Z,97.10
2019-02-23T02:52:32.338Z,97.10
2019-02-23T02:55:06.839Z,97.30
2019-02-23T02:57:39.877Z,97.30
2019-02-23T03:00:12.915Z,97.40
2019-02-23T03:02:46.075Z,97.40
2019-02-23T03:05:19.156Z,97.40
2019-02-23T03:07:52.021Z,97.50
2019-02-23T03:10:25.209Z,97.50
2019-02-23T03:12:58.580Z,97.50
2019-02-23T03:15:31.717Z,98.00
2019-02-23T03:18:04.688Z,97.70
2019-02-23T03:20:37.620Z,97.70
2019-02-23T03:23:10.380Z,97.70
2019-02-23T03:25:43.263Z,97.80
2019-02-23T03:28:16.329Z,97.80
2019-02-23T03:30:49.107Z,97.80
2019-02-23T03:33:22.139Z,97.90
2019-02-23T03:35:55.139Z,97.80
2019-02-23T03:38:27.988Z,97.70
2019-02-23T03:41:01.543Z,98.00
2019-02-23T03:43:34.389Z,98.00
2019-02-23T03:46:07.353Z,98.10
2019-02-23T03:48:40.338Z,98.10
2019-02-23T03:51:13.233Z,98.10
2019-02-23T03:53:46.225Z,98.10
2019-02-23T03:56:19.200Z,98.20
2019-02-23T03:58:52.170Z,98.20
2019-02-23T04:01:25.278Z,98.20
2019-02-23T04:03:58.145Z,98.10
2019-02-23T04:06:31.136Z,98.10
2019-02-23T04:09:05.111Z,98.00
2019-02-23T04:11:39.401Z,97.90
2019-02-23T04:14:12.185Z,97.90
2019-02-23T04:16:45.071Z,97.70
2019-02-23T04:19:18.136Z,97.50
2019-02-23T04:21:51.321Z,97.10
2019-02-23T04:24:24.144Z,97.10
2019-02-23T04:26:57.128Z,96.80
2019-02-23T04:29:30.185Z,96.50
2019-02-23T04:32:03.075Z,96.50
2019-02-23T04:34:36.031Z,96.40
2019-02-23T04:37:08.931Z,96.60
2019-02-23T04:39:41.730Z,96.90
2019-02-23T04:42:14.726Z,96.50
2019-02-23T04:44:47.585Z,96.50
2019-02-23T04:47:20.550Z,96.40
2019-02-23T04:49:54.271Z,96.20
2019-02-23T04:52:27.269Z,96.40
2019-02-23T04:55:00.325Z,96.30
2019-02-23T04:57:33.250Z,96.20
2019-02-23T05:00:08.722Z,96.20
2019-02-23T05:02:41.697Z,96.20
2019-02-23T05:05:14.644Z,96.10
2019-02-23T05:07:47.715Z,96.20
2019-02-23T05:10:20.726Z,96.20
2019-02-23T05:12:53.910Z,96.20
2019-02-23T05:15:26.764Z,96.10
2019-02-23T05:17:59.951Z,96.00
2019-02-23T05:20:39.524Z,96.30
2019-02-23T05:23:12.537Z,96.20
2019-02-23T05:25:45.375Z,96.10
2019-02-23T05:28:18.471Z,95.90
2019-02-23T05:30:51.239Z,95.90
2019-02-23T05:33:24.184Z,96.00
2019-02-23T05:35:57.125Z,95.90
2019-02-23T05:38:29.901Z,95.80
2019-02-23T05:41:02.702Z,95.80
2019-02-23T05:43:35.814Z,96.00
2019-02-23T05:46:08.928Z,95.70
2019-02-23T05:48:41.713Z,95.70
2019-02-23T05:51:14.566Z,95.70
2019-02-23T05:53:47.595Z,95.60
2019-02-23T05:56:20.602Z,95.30
2019-02-23T05:58:53.422Z,95.50
2019-02-23T06:01:26.423Z,95.90
2019-02-23T06:03:59.192Z,95.80
2019-02-23T06:06:32.007Z,95.80
2019-02-23T06:09:05.377Z,96.10
2019-02-23T06:11:38.428Z,96.00
2019-02-23T06:14:11.419Z,95.80
2019-02-23T06:16:44.196Z,96.00
2019-02-23T06:19:18.318Z,96.00
2019-02-23T06:21:54.186Z,96.00
2019-02-23T06:24:25.927Z,96.00
2019-02-23T06:26:58.936Z,95.80
2019-02-23T06:29:31.918Z,95.60
2019-02-23T06:32:04.912Z,95.60
2019-02-23T06:34:37.793Z,95.60
2019-02-23T06:37:10.922Z,95.80
2019-02-23T06:39:43.871Z,95.80
2019-02-23T06:42:17.386Z,95.80
2019-02-23T06:44:50.252Z,95.90
2019-02-23T06:47:23.261Z,96.00
2019-02-23T06:49:56.222Z,96.20
2019-02-23T06:52:29.165Z,96.20
2019-02-23T06:55:03.426Z,96.00
2019-02-23T06:57:36.552Z,96.20
2019-02-23T07:00:12.132Z,96.00
2019-02-23T07:02:45.163Z,96.00
2019-02-23T07:05:18.013Z,96.10
2019-02-23T07:07:52.032Z,96.20
2019-02-23T07:10:25.207Z,96.00
2019-02-23T07:12:58.227Z,96.10
2019-02-23T07:15:32.103Z,96.00
2019-02-23T07:18:05.939Z,96.00
2019-02-23T07:20:44.260Z,96.00
2019-02-23T07:23:13.913Z,96.00
2019-02-23T07:25:46.894Z,95.80
2019-02-23T07:28:19.690Z,95.90
2019-02-23T07:30:52.663Z,95.70
2019-02-23T07:33:32.851Z,95.50
2019-02-23T07:36:00.523Z,95.00
2019-02-23T07:38:35.535Z,95.10
2019-02-23T07:41:08.751Z,95.00
2019-02-23T07:43:42.028Z,94.60
2019-02-23T07:46:15.186Z,94.60
2019-02-23T07:48:48.152Z,94.50
2019-02-23T07:51:27.987Z,94.20
2019-02-23T07:54:01.240Z,94.20
2019-02-23T07:56:35.151Z,93.70
2019-02-23T07:59:08.483Z,93.70
2019-02-23T08:01:41.404Z,93.50
2019-02-23T08:04:14.439Z,93.60
2019-02-23T08:06:47.604Z,93.20
2019-02-23T08:09:20.722Z,93.30
2019-02-23T08:11:53.511Z,93.10
2019-02-23T08:14:26.687Z,93.00
2019-02-23T08:16:59.552Z,93.10
2019-02-23T08:19:32.608Z,92.80
2019-02-23T08:22:05.582Z,92.70
2019-02-23T08:24:38.572Z,92.60
2019-02-23T08:27:11.868Z,92.30
2019-02-23T08:29:44.689Z,92.00
2019-02-23T08:32:17.902Z,92.00
2019-02-23T08:34:51.188Z,92.20
2019-02-23T08:37:24.342Z,92.30
2019-02-23T08:39:57.105Z,91.90
2019-02-23T08:42:30.030Z,91.50
2019-02-23T08:45:03.103Z,91.50
2019-02-23T08:47:36.202Z,91.40
2019-02-23T08:50:10.468Z,91.40
2019-02-23T08:52:49.357Z,91.10
2019-02-23T08:55:18.509Z,91.10
2019-02-23T08:57:51.710Z,90.30
2019-02-23T09:00:24.790Z,89.20
2019-02-23T09:02:57.884Z,89.20
2019-02-23T09:05:30.965Z,88.60
2019-02-23T09:08:04.073Z,87.60
2019-02-23T09:10:37.034Z,87.50
2019-02-23T09:13:09.983Z,84.80
2019-02-23T09:15:42.915Z,83.30
2019-02-23T09:18:15.773Z,80.50
2019-02-23T09:20:48.760Z,80.20
2019-02-23T09:23:22.041Z,79.80
2019-02-23T09:25:57.786Z,79.50
2019-02-23T09:28:31.138Z,77.60
2019-02-23T09:31:04.234Z,77.50
2019-02-23T09:33:37.373Z,77.60
2019-02-23T09:36:10.417Z,77.50
2019-02-23T09:38:43.489Z,77.20
2019-02-23T09:41:16.665Z,77.60
2019-02-23T09:43:49.726Z,77.30
2019-02-23T09:46:22.864Z,76.40
2019-02-23T09:48:56.460Z,75.50
2019-02-23T09:51:29.375Z,74.10
2019-02-23T09:54:02.286Z,74.00
2019-02-23T09:56:35.625Z,73.40
2019-02-23T09:59:08.681Z,74.50
2019-02-23T10:01:41.914Z,75.10
2019-02-23T10:04:15.411Z,74.70
2019-02-23T10:06:48.378Z,75.70
2019-02-23T10:09:21.240Z,75.80
2019-02-23T10:11:54.238Z,73.50
2019-02-23T10:14:27.210Z,72.50
2019-02-23T10:17:00.324Z,70.90
2019-02-23T10:19:33.521Z,68.50
2019-02-23T10:22:06.592Z,69.90
2019-02-23T10:24:39.651Z,69.90
2019-02-23T10:27:12.907Z,68.00
2019-02-23T10:29:46.015Z,67.70
2019-02-23T10:32:20.144Z,68.80
2019-02-23T10:34:53.135Z,67.70
2019-02-23T10:37:26.044Z,67.60
2019-02-23T10:39:59.060Z,66.30
2019-02-23T10:42:32.303Z,64.70
2019-02-23T10:45:06.954Z,64.70
2019-02-23T10:47:40.922Z,64.50
2019-02-23T10:50:14.557Z,65.10
2019-02-23T10:52:47.621Z,63.00
2019-02-23T10:55:21.661Z,64.10
2019-02-23T10:57:55.110Z,63.40
2019-02-23T11:00:28.246Z,64.60
2019-02-23T11:03:01.374Z,65.10
2019-02-23T11:05:34.447Z,64.20
2019-02-23T11:08:07.506Z,62.80
2019-02-23T11:10:40.764Z,62.50
2019-02-23T11:13:13.857Z,61.30
2019-02-23T11:15:47.018Z,61.40
2019-02-23T11:18:20.116Z,59.40
2019-02-23T11:20:53.041Z,57.90
2019-02-23T11:23:26.040Z,57.00
2019-02-23T11:25:59.241Z,57.20
2019-02-23T11:28:32.226Z,55.20
2019-02-23T11:31:05.266Z,55.40
2019-02-23T11:33:38.400Z,55.20
2019-02-23T11:36:11.447Z,55.60
2019-02-23T11:38:44.398Z,54.50
2019-02-23T11:41:17.467Z,55.10
2019-02-23T11:43:50.572Z,53.70
2019-02-23T11:46:24.522Z,53.20
2019-02-23T11:48:57.610Z,52.20
2019-02-23T11:51:30.663Z,52.80
2019-02-23T11:54:03.771Z,51.40
2019-02-23T11:56:36.773Z,50.50
2019-02-23T11:59:09.957Z,51.30
2019-02-23T12:01:42.781Z,50.60
2019-02-23T12:04:15.667Z,50.20
2019-02-23T12:06:48.858Z,50.30
2019-02-23T12:09:21.725Z,48.00
2019-02-23T12:11:54.562Z,47.40
2019-02-23T12:14:27.783Z,45.00
2019-02-23T12:17:00.643Z,44.20
2019-02-23T12:19:33.615Z,44.70
2019-02-23T12:22:12.396Z,43.00
2019-02-23T12:24:41.191Z,42.60
2019-02-23T12:27:14.146Z,42.10
2019-02-23T12:29:47.052Z,42.00
2019-02-23T12:32:20.288Z,43.10
2019-02-23T12:34:53.367Z,44.70
2019-02-23T12:37:26.450Z,46.20
2019-02-23T12:39:59.288Z,46.90
2019-02-23T12:42:33.266Z,46.00
2019-02-23T12:45:06.691Z,46.90
2019-02-23T12:47:40.282Z,45.70
2019-02-23T12:50:13.482Z,44.80
2019-02-23T12:52:46.522Z,45.50
2019-02-23T12:55:19.536Z,44.00
2019-02-23T12:57:52.547Z,44.00
2019-02-23T13:00:25.543Z,43.80
2019-02-23T13:02:58.591Z,43.60
2019-02-23T13:05:31.412Z,43.40
2019-02-23T13:08:04.714Z,44.20
2019-02-23T13:10:37.662Z,43.20
2019-02-23T13:13:28.642Z,42.80
2019-02-23T13:16:09.518Z,42.70
2019-02-23T13:19:27.028Z,41.80
2019-02-23T13:22:50.758Z,41.20
2019-02-23T13:26:02.707Z,40.90
2019-02-23T13:29:11.163Z,40.00
2019-02-23T13:31:56.824Z,38.20
2019-02-23T13:35:26.799Z,37.60
2019-02-23T13:38:49.358Z,39.60
2019-02-23T13:41:29.654Z,39.60
2019-02-23T13:45:03.008Z,38.70
2019-02-23T13:48:11.199Z,38.50
2019-02-23T13:51:12.840Z,39.40
2019-02-23T13:54:39.167Z,39.50
2019-02-23T13:58:04.877Z,39.70
2019-02-23T14:01:17.949Z,39.30
2019-02-23T14:04:26.632Z,38.70
2019-02-23T14:07:30.182Z,38.60
2019-02-23T14:10:30.357Z,38.40
2019-02-23T14:13:30.995Z,37.00
2019-02-23T14:16:55.503Z,35.00
2019-02-23T14:20:05.308Z,32.90
2019-02-23T14:23:10.713Z,34.20
2019-02-23T14:26:02.691Z,32.90
2019-02-23T14:29:29.639Z,30.60
2019-02-23T14:32:55.652Z,28.50
2019-02-23T14:36:00.162Z,28.90
2019-02-23T14:39:27.399Z,29.10
2019-02-23T14:42:37.974Z,29.20
2019-02-23T14:45:56.405Z,30.00
2019-02-23T14:49:06.195Z,30.10
2019-02-23T14:52:15.632Z,30.90
2019-02-23T14:55:00.937Z,31.00
2019-02-23T14:57:54.900Z,30.30
2019-02-23T15:01:05.419Z,30.80
2019-02-23T15:04:17.189Z,31.40
2019-02-23T15:07:01.701Z,32.40
2019-02-23T15:09:57.109Z,33.10
2019-02-23T15:13:12.645Z,32.60
2019-02-23T15:16:38.487Z,33.20
2019-02-23T15:19:27.055Z,33.30
2019-02-23T15:22:30.804Z,33.10
2019-02-23T15:25:34.207Z,33.40
2019-02-23T15:28:37.866Z,34.40
2019-02-23T15:31:42.991Z,34.10
2019-02-23T15:34:48.700Z,34.80
2019-02-23T15:37:35.718Z,35.50
2019-02-23T15:40:35.043Z,36.90
2019-02-23T15:44:02.293Z,37.20
2019-02-23T15:46:59.490Z,38.30
2019-02-23T15:49:34.323Z,39.10
2019-02-23T15:52:07.695Z,39.10
2019-02-23T15:54:40.915Z,40.10
2019-02-23T15:57:13.913Z,41.20
2019-02-23T15:59:46.760Z,41.10
2019-02-23T16:02:19.925Z,41.50
2019-02-23T16:04:53.021Z,41.90
2019-02-23T16:07:26.181Z,42.40
2019-02-23T16:09:59.278Z,42.90
2019-02-23T16:12:32.365Z,43.70
2019-02-23T16:15:06.736Z,44.10
2019-02-23T16:17:39.785Z,44.70
2019-02-23T16:20:12.706Z,45.50
2019-02-23T16:22:45.501Z,46.20
2019-02-23T16:25:19.517Z,46.70
2019-02-23T16:27:52.580Z,47.30
2019-02-23T16:30:25.660Z,48.20
2019-02-23T16:32:58.955Z,48.50
2019-02-23T16:35:31.897Z,49.30
2019-02-23T16:38:04.756Z,49.60
2019-02-23T16:40:37.771Z,50.20
2019-02-23T16:43:10.755Z,50.50
2019-02-23T16:45:45.062Z,51.40
2019-02-23T16:48:18.071Z,52.70
2019-02-23T16:50:51.214Z,52.50
2019-02-23T16:53:24.125Z,52.70
2019-02-23T16:55:57.377Z,53.10
2019-02-23T16:58:31.296Z,53.60
2019-02-23T17:01:04.509Z,54.10
2019-02-23T17:03:37.520Z,54.50
2019-02-23T17:06:10.802Z,54.80
2019-02-23T17:08:43.963Z,55.00
2019-02-23T17:11:17.112Z,55.70
2019-02-23T17:13:50.038Z,55.50
2019-02-23T17:16:23.296Z,56.70
2019-02-23T17:18:56.664Z,56.90
2019-02-23T17:21:29.958Z,56.30
2019-02-23T17:24:03.001Z,56.70
2019-02-23T17:26:36.937Z,56.70
2019-02-23T17:29:10.250Z,56.70
2019-02-23T17:31:43.465Z,56.40
2019-02-23T17:34:16.466Z,56.50
2019-02-23T17:36:49.427Z,57.20
2019-02-23T17:39:22.786Z,57.00
2019-02-23T17:41:57.680Z,57.10
2019-02-23T17:44:30.983Z,58.30
2019-02-23T17:47:04.001Z,57.50
2019-02-23T17:49:37.160Z,58.10
2019-02-23T17:52:10.308Z,58.20
2019-02-23T17:54:43.377Z,58.30
2019-02-23T17:57:16.280Z,58.30
2019-02-23T17:59:49.560Z,58.40
2019-02-23T18:02:22.832Z,58.70
2019-02-23T18:04:55.757Z,58.30
2019-02-23T18:07:28.662Z,58.80
2019-02-23T18:10:01.588Z,59.00
2019-02-23T18:12:34.887Z,59.00
2019-02-23T18:15:08.061Z,59.70
2019-02-23T18:17:41.232Z,59.40
2019-02-23T18:20:14.167Z,59.60
2019-02-23T18:22:47.157Z,59.70
2019-02-23T18:25:20.213Z,59.80
2019-02-23T18:27:53.475Z,60.10
2019-02-23T18:30:26.383Z,60.30
2019-02-23T18:32:59.598Z,60.70
2019-02-23T18:35:32.611Z,59.70
2019-02-23T18:38:05.613Z,60.20
2019-02-23T18:40:38.662Z,59.20
2019-02-23T18:43:11.673Z,60.20
2019-02-23T18:45:47.595Z,59.10
2019-02-23T18:48:20.969Z,59.30
2019-02-23T18:50:53.908Z,59.10
2019-02-23T18:53:26.803Z,58.70
2019-02-23T18:56:19.101Z,59.70
2019-02-23T18:58:52.180Z,59.00
2019-02-23T19:01:24.927Z,58.80
2019-02-23T19:03:58.373Z,58.80
2019-02-23T19:06:31.522Z,58.60
2019-02-23T19:09:05.424Z,58.50
2019-02-23T19:11:40.250Z,59.00
2019-02-23T19:14:13.511Z,58.90
2019-02-23T19:16:46.703Z,59.00
2019-02-23T19:19:19.826Z,59.40
2019-02-23T19:21:53.123Z,59.50
2019-02-23T19:24:26.726Z,59.50
2019-02-23T19:26:59.725Z,59.40
2019-02-23T19:29:32.502Z,59.80
2019-02-23T19:32:05.550Z,59.30
2019-02-23T19:34:38.506Z,59.60
2019-02-23T19:37:11.506Z,59.90
2019-02-23T19:39:44.660Z,59.50
2019-02-23T19:42:18.643Z,59.80
2019-02-23T19:44:52.104Z,60.40
2019-02-23T19:47:29.597Z,60.80
2019-02-23T19:50:14.454Z,60.50
2019-02-23T19:52:47.251Z,60.50
2019-02-23T19:55:20.327Z,60.20
2019-02-23T19:57:53.307Z,60.20
2019-02-23T20:00:26.178Z,60.10
2019-02-23T20:02:59.446Z,60.10
2019-02-23T20:05:32.572Z,60.40
2019-02-23T20:08:05.739Z,60.50
2019-02-23T20:10:39.271Z,60.70
2019-02-23T20:13:12.068Z,60.90
2019-02-23T20:15:45.695Z,61.40
2019-02-23T20:18:18.721Z,61.50
2019-02-23T20:20:51.592Z,61.40
2019-02-23T20:23:24.518Z,61.30
2019-02-23T20:25:57.492Z,61.30
2019-02-23T20:28:31.604Z,61.40
2019-02-23T20:31:04.455Z,62.30
2019-02-23T20:33:37.488Z,62.20
2019-02-23T20:36:10.632Z,61.50
2019-02-23T20:38:43.670Z,62.20
2019-02-23T20:41:16.545Z,61.90
2019-02-23T20:43:49.665Z,62.80
2019-02-23T20:46:22.690Z,62.70
2019-02-23T20:48:55.600Z,63.00
2019-02-23T20:51:28.756Z,63.80
2019-02-23T20:54:01.888Z,62.60
2019-02-23T20:56:34.952Z,62.70
2019-02-23T20:59:08.003Z,62.60
2019-02-23T21:01:40.873Z,63.20
2019-02-23T21:04:13.895Z,62.30
2019-02-23T21:06:46.815Z,63.30
2019-02-23T21:09:19.749Z,62.40
2019-02-23T21:11:52.923Z,62.50
2019-02-23T21:14:25.713Z,62.60
2019-02-23T21:16:58.662Z,62.50
2019-02-23T21:19:31.755Z,62.30
2019-02-23T21:22:04.459Z,62.00
2019-02-23T21:24:38.350Z,61.50
2019-02-23T21:27:13.217Z,61.00
2019-02-23T21:29:46.475Z,60.90
2019-02-23T21:32:19.444Z,60.80
2019-02-23T21:34:52.488Z,61.20
2019-02-23T21:37:25.321Z,61.60
2019-02-23T21:39:58.139Z,62.40
2019-02-23T21:42:32.131Z,62.00
2019-02-23T21:45:05.100Z,62.30
2019-02-23T21:47:38.584Z,62.00
2019-02-23T21:50:13.385Z,61.60
2019-02-23T21:52:47.496Z,61.50
2019-02-23T21:55:20.644Z,61.30
2019-02-23T21:57:54.076Z,61.00
2019-02-23T22:00:27.131Z,60.90
2019-02-23T22:03:00.097Z,61.00
2019-02-23T22:05:32.990Z,60.90
2019-02-23T22:08:05.946Z,60.90
2019-02-23T22:10:39.054Z,60.90
2019-02-23T22:13:12.114Z,60.90
2019-02-23T22:15:45.191Z,61.00
2019-02-23T22:18:18.227Z,60.90
2019-02-23T22:20:50.977Z,60.60
2019-02-23T22:23:23.867Z,60.50
2019-02-23T22:25:57.069Z,60.20
2019-02-23T22:28:29.974Z,60.10
2019-02-23T22:31:03.110Z,59.90
2019-02-23T22:33:36.573Z,59.70
2019-02-23T22:36:09.577Z,59.90
2019-02-23T22:38:42.555Z,59.90
2019-02-23T22:41:15.683Z,60.40
2019-02-23T22:43:48.899Z,60.30
2019-02-23T22:46:21.911Z,60.60
2019-02-23T22:48:55.126Z,60.60
2019-02-23T22:51:27.980Z,60.90
2019-02-23T22:54:01.756Z,60.70
2019-02-23T22:56:34.775Z,60.70
2019-02-23T22:59:07.595Z,61.00
2019-02-23T23:01:40.995Z,61.70
2019-02-23T23:04:16.015Z,61.10
2019-02-23T23:06:48.940Z,60.70
2019-02-23T23:09:22.070Z,60.50
2019-02-23T23:11:54.995Z,60.40
2019-02-23T23:14:27.796Z,60.80
2019-02-23T23:17:00.782Z,61.00
2019-02-23T23:19:33.985Z,61.10
2019-02-23T23:22:06.935Z,61.80
2019-02-23T23:24:40.058Z,61.60
2019-02-23T23:27:13.126Z,61.90
2019-02-23T23:29:46.065Z,61.40
2019-02-23T23:32:19.155Z,61.50
2019-02-23T23:34:52.110Z,61.30
2019-02-23T23:37:24.975Z,61.50
2019-02-23T23:39:57.936Z,61.40
2019-02-23T23:42:30.877Z,61.60
2019-02-23T23:45:04.052Z,61.70
2019-02-23T23:47:36.999Z,61.80
2019-02-23T23:50:09.981Z,62.30
2019-02-23T23:52:43.049Z,62.20
2019-02-23T23:55:16.173Z,61.80
2019-02-23T23:57:57.830Z,62.30
